Time;durP1;ratioP1;P1;durP2;ratioP2;P2;SDS_P1;SDS_P2;PMS_P1;PMS_P2;Temp;Humidity;BMP_temperature;BMP_pressure;BME280_temperature;BME280_humidity;BME280_pressure;Samples;Min_cycle;Max_cycle;Signal;HPM_P1;HPM_P2
2022/06/08 00:00:35;;;;;;;3.00;0.90;;;16.40;76.40;;;;;;5013873;28;20064;-86
2022/06/08 00:03:09;;;;;;;4.97;0.90;;;16.40;76.40;;;;;;5045285;28;20049;-85
2022/06/08 00:05:36;;;;;;;2.75;0.90;;;16.40;76.40;;;;;;5013966;28;20430;-86
2022/06/08 00:08:04;;;;;;;2.92;0.88;;;16.40;76.50;;;;;;5013805;28;20049;-86
2022/06/08 00:10:31;;;;;;;2.13;0.90;;;16.40;76.50;;;;;;5014456;28;20046;-86
2022/06/08 00:12:58;;;;;;;2.05;0.95;;;16.40;76.50;;;;;;5013659;28;20108;-85
2022/06/08 00:15:26;;;;;;;4.18;0.93;;;16.40;76.60;;;;;;5040832;28;20574;-85
2022/06/08 00:17:54;;;;;;;2.80;0.90;;;16.40;76.60;;;;;;5001538;28;20422;-85
2022/06/08 00:20:21;;;;;;;3.17;1.02;;;16.40;76.60;;;;;;5013647;28;20046;-85
2022/06/08 00:22:49;;;;;;;1.90;0.90;;;16.40;76.70;;;;;;5013956;28;20049;-85
2022/06/08 00:25:16;;;;;;;3.92;1.02;;;16.40;76.70;;;;;;5013542;28;20053;-85
2022/06/08 00:27:43;;;;;;;2.15;0.90;;;16.40;76.80;;;;;;5037901;28;20047;-85
2022/06/08 00:30:10;;;;;;;3.53;1.20;;;16.30;76.80;;;;;;5005035;28;20112;-84
2022/06/08 00:32:37;;;;;;;4.18;1.25;;;16.40;76.80;;;;;;5013184;28;20446;-85
2022/06/08 00:35:05;;;;;;;3.00;1.10;;;16.30;76.90;;;;;;5013393;28;20103;-85
2022/06/08 00:37:32;;;;;;;3.60;1.08;;;16.40;76.90;;;;;;5013919;28;20045;-85
2022/06/08 00:39:59;;;;;;;6.35;1.40;;;16.30;76.90;;;;;;5013207;28;20056;-85
2022/06/08 00:42:26;;;;;;;2.95;1.17;;;16.30;77.00;;;;;;5044835;28;20100;-85
2022/06/08 00:45:01;;;;;;;4.30;1.10;;;16.30;77.00;;;;;;5013167;28;20050;-85
2022/06/08 00:47:34;;;;;;;3.63;1.30;;;16.30;77.10;;;;;;5012607;28;20088;-85
2022/06/08 00:50:12;;;;;;;8.52;1.25;;;16.30;77.10;;;;;;5013062;28;20050;-85
2022/06/08 00:52:39;;;;;;;2.40;1.10;;;16.30;77.10;;;;;;5013114;28;20050;-85
2022/06/08 00:55:10;;;;;;;3.63;1.25;;;16.30;77.20;;;;;;5012967;28;20053;-85
2022/06/08 00:57:39;;;;;;;4.35;1.30;;;16.30;77.20;;;;;;5012818;28;20053;-85
2022/06/08 01:00:14;;;;;;;5.97;1.25;;;16.30;77.20;;;;;;5012540;28;20050;-85
2022/06/08 01:02:42;;;;;;;3.78;1.10;;;16.30;77.20;;;;;;5012806;28;20045;-85
2022/06/08 01:05:29;;;;;;;3.00;1.00;;;16.30;77.30;;;;;;5012716;28;20430;-85
2022/06/08 01:08:01;;;;;;;3.33;1.15;;;16.30;77.30;;;;;;5042041;28;20054;-85
2022/06/08 01:10:50;;;;;;;2.53;1.10;;;16.30;77.30;;;;;;5011256;28;20045;-84
2022/06/08 01:13:17;;;;;;;7.30;1.40;;;16.30;77.40;;;;;;5012178;28;20104;-84
2022/06/08 01:15:44;;;;;;;5.97;1.73;;;16.30;77.40;;;;;;5012313;28;20050;-85
2022/06/08 01:18:12;;;;;;;5.03;1.42;;;16.30;77.50;;;;;;5041143;28;20065;-84
2022/06/08 01:20:55;;;;;;;4.18;1.52;;;16.30;77.50;;;;;;4999965;28;20112;-85
2022/06/08 01:23:23;;;;;;;6.20;1.52;;;16.30;77.60;;;;;;4997578;28;20081;-85
2022/06/08 01:26:16;;;;;;;4.95;1.40;;;16.30;77.70;;;;;;5012735;28;20580;-84
2022/06/08 01:28:52;;;;;;;4.32;1.52;;;16.30;77.80;;;;;;5007669;28;20383;-85
2022/06/08 01:31:32;;;;;;;5.43;1.52;;;16.30;77.80;;;;;;5010385;28;20054;-85
2022/06/08 01:34:04;;;;;;;3.17;1.30;;;16.30;77.90;;;;;;5012225;28;20088;-85
2022/06/08 01:36:46;;;;;;;6.95;1.75;;;16.30;78.00;;;;;;5012261;28;20050;-85
2022/06/08 01:39:27;;;;;;;4.07;1.55;;;16.30;78.00;;;;;;5012286;28;20580;-85
2022/06/08 01:42:00;;;;;;;4.28;1.38;;;16.30;78.10;;;;;;5043511;28;20096;-85
2022/06/08 01:47:59;;;;;;;5.57;1.60;;;16.30;78.10;;;;;;5000642;28;20473;-85
2022/06/08 01:50:44;;;;;;;8.18;1.70;;;16.20;78.20;;;;;;4998755;28;20510;-85
2022/06/08 01:53:48;;;;;;;6.43;1.60;;;16.20;78.20;;;;;;5012196;28;20042;-85
2022/06/08 01:56:38;;;;;;;7.70;2.00;;;16.30;78.30;;;;;;5012145;28;20052;-85
2022/06/08 01:59:28;;;;;;;8.35;1.73;;;16.20;78.40;;;;;;5007948;28;20084;-85
2022/06/08 02:02:01;;;;;;;6.82;1.50;;;16.30;78.40;;;;;;5007581;28;21167;-85
2022/06/08 02:04:44;;;;;;;8.05;1.67;;;16.30;78.50;;;;;;5010358;28;20061;-86
2022/06/08 02:07:20;;;;;;;8.10;1.65;;;16.30;78.50;;;;;;5009827;28;20054;-85
2022/06/08 02:10:01;;;;;;;5.95;1.80;;;16.30;78.60;;;;;;5009198;28;20564;-85
2022/06/08 02:12:33;;;;;;;4.88;1.85;;;16.30;78.60;;;;;;5009489;28;20473;-83
2022/06/08 02:15:09;;;;;;;8.40;1.95;;;16.20;78.70;;;;;;4993582;28;20046;-85
2022/06/08 02:17:51;;;;;;;8.57;1.60;;;16.30;78.70;;;;;;5009758;28;20042;-85
2022/06/08 02:20:40;;;;;;;6.28;2.08;;;16.30;78.80;;;;;;4994345;28;20038;-85
2022/06/08 02:23:26;;;;;;;9.70;1.98;;;16.20;78.80;;;;;;5009581;28;20143;-85
2022/06/08 02:25:56;;;;;;;6.38;1.95;;;16.30;78.80;;;;;;5006994;28;20054;-85
2022/06/08 02:28:30;;;;;;;8.65;1.80;;;16.30;78.90;;;;;;5009713;28;20523;-84
2022/06/08 02:31:20;;;;;;;6.78;2.03;;;16.20;78.90;;;;;;5021506;28;20506;-85
2022/06/08 02:39:40;;;;;;;8.82;2.05;;;16.30;79.00;;;;;;3877200;22;20127;-95
2022/06/08 02:42:13;;;;;;;8.50;1.50;;;16.30;79.10;;;;;;5059247;28;20072;-96
2022/06/08 02:44:44;;;;;;;7.60;1.77;;;16.30;79.10;;;;;;5063528;28;20049;-95
2022/06/08 02:47:18;;;;;;;7.43;1.80;;;16.20;79.20;;;;;;5051449;28;20075;-95
2022/06/08 02:49:45;;;;;;;6.22;1.75;;;16.30;79.20;;;;;;5064827;28;20048;-94
2022/06/08 02:52:24;;;;;;;7.43;1.85;;;16.30;79.20;;;;;;5067298;28;20071;-94
2022/06/08 02:54:51;;;;;;;8.20;2.13;;;16.20;79.30;;;;;;5069658;28;20053;-95
2022/06/08 02:57:45;;;;;;;6.10;1.77;;;16.20;79.30;;;;;;5062647;28;20048;-95
2022/06/08 03:00:16;;;;;;;5.63;1.50;;;16.20;79.40;;;;;;5061756;28;20061;-96
2022/06/08 03:02:54;;;;;;;9.40;2.00;;;16.30;79.40;;;;;;5049119;28;20049;-96
2022/06/08 03:05:33;;;;;;;6.57;1.95;;;16.20;79.40;;;;;;5048447;28;20080;-95
2022/06/08 03:08:14;;;;;;;11.25;1.77;;;16.20;79.40;;;;;;5063298;28;20097;-96
2022/06/08 03:10:43;;;;;;;8.23;2.35;;;16.20;79.50;;;;;;5051564;28;20119;-95
2022/06/08 03:13:16;;;;;;;7.05;1.90;;;16.20;79.50;;;;;;5046982;28;20046;-95
2022/06/08 03:15:48;;;;;;;9.97;2.43;;;16.20;79.50;;;;;;5049031;28;20071;-95
2022/06/08 03:18:15;;;;;;;8.23;1.67;;;16.20;79.50;;;;;;5056364;28;20492;-95
2022/06/08 03:20:43;;;;;;;7.93;2.00;;;16.20;79.60;;;;;;5040872;28;20527;-95
2022/06/08 03:23:10;;;;;;;6.18;1.67;;;16.20;79.60;;;;;;5066541;28;20083;-95
2022/06/08 03:25:37;;;;;;;10.35;2.08;;;16.20;79.60;;;;;;5066568;28;20052;-95
2022/06/08 03:28:04;;;;;;;21.23;2.17;;;16.20;79.60;;;;;;5067047;28;20095;-95
2022/06/08 03:30:31;;;;;;;11.70;2.20;;;16.20;79.60;;;;;;5066299;28;20071;-95
2022/06/08 03:32:58;;;;;;;8.50;1.90;;;16.20;79.70;;;;;;5069042;28;20055;-95
2022/06/08 03:35:25;;;;;;;8.40;1.77;;;16.20;79.70;;;;;;5067635;28;20076;-94
2022/06/08 03:37:52;;;;;;;9.15;2.20;;;16.30;79.70;;;;;;5060183;28;20060;-95
2022/06/08 03:40:19;;;;;;;7.78;2.25;;;16.20;79.70;;;;;;5056652;28;20045;-94
2022/06/08 03:42:46;;;;;;;6.88;1.98;;;16.20;79.70;;;;;;5056033;28;20551;-93
2022/06/08 03:45:13;;;;;;;5.28;2.03;;;16.20;79.80;;;;;;5056637;28;20067;-94
2022/06/08 03:47:43;;;;;;;7.80;1.83;;;16.20;79.80;;;;;;5056421;28;20405;-94
2022/06/08 03:50:14;;;;;;;6.50;1.88;;;16.20;79.80;;;;;;5055725;28;20079;-94
2022/06/08 03:52:46;;;;;;;10.70;2.15;;;16.20;79.80;;;;;;5056314;28;20052;-94
2022/06/08 03:55:19;;;;;;;8.57;1.92;;;16.20;79.80;;;;;;5057358;28;20056;-95
2022/06/08 03:57:49;;;;;;;8.70;2.30;;;16.20;79.80;;;;;;5057898;28;20094;-94
2022/06/08 04:00:18;;;;;;;7.85;2.35;;;16.20;79.90;;;;;;5057683;28;20048;-95
2022/06/08 04:02:46;;;;;;;6.47;1.80;;;16.20;79.90;;;;;;5057274;28;20455;-95
2022/06/08 04:05:16;;;;;;;15.15;2.83;;;16.20;79.90;;;;;;5056825;28;20053;-95
2022/06/08 04:07:43;;;;;;;10.15;2.42;;;16.20;79.90;;;;;;5057331;28;20049;-94
2022/06/08 04:10:10;;;;;;;8.38;2.20;;;16.10;79.90;;;;;;5057841;28;20045;-95
2022/06/08 04:12:38;;;;;;;9.80;2.33;;;16.20;80.00;;;;;;5058068;28;20107;-94
2022/06/08 04:15:06;;;;;;;9.35;2.03;;;16.10;80.00;;;;;;5057701;28;20428;-94
2022/06/08 04:17:33;;;;;;;10.32;2.40;;;16.20;80.00;;;;;;5057738;28;20053;-94
2022/06/08 04:20:00;;;;;;;9.85;2.28;;;16.10;80.00;;;;;;5057771;28;20049;-95
2022/06/08 04:22:31;;;;;;;7.13;1.73;;;16.10;80.10;;;;;;5056799;28;20049;-94
2022/06/08 04:24:59;;;;;;;10.30;2.45;;;16.10;80.10;;;;;;5057734;28;20159;-95
2022/06/08 04:27:27;;;;;;;11.00;2.53;;;16.10;80.10;;;;;;5056444;28;20056;-94
2022/06/08 04:29:54;;;;;;;9.63;2.58;;;16.10;80.10;;;;;;5038838;28;20053;-96
2022/06/08 04:32:22;;;;;;;13.30;2.72;;;16.10;80.10;;;;;;5041052;28;20049;-94
2022/06/08 04:34:49;;;;;;;7.70;2.03;;;16.10;80.20;;;;;;5053677;28;20052;-95
2022/06/08 04:37:16;;;;;;;12.15;3.10;;;16.10;80.20;;;;;;5060419;28;20049;-95
2022/06/08 04:39:43;;;;;;;10.35;2.50;;;16.10;80.20;;;;;;5057650;28;20509;-94
2022/06/08 04:42:14;;;;;;;6.45;2.05;;;16.10;80.20;;;;;;5058420;28;20049;-95
2022/06/08 04:44:41;;;;;;;11.40;2.47;;;16.10;80.20;;;;;;5060707;28;20079;-94
2022/06/08 04:47:08;;;;;;;7.95;2.40;;;16.10;80.20;;;;;;5061519;28;20534;-95
2022/06/08 04:49:35;;;;;;;11.55;2.83;;;16.10;80.30;;;;;;5064949;28;20057;-95
2022/06/08 04:52:04;;;;;;;11.18;2.55;;;16.10;80.30;;;;;;5061272;28;20088;-95
2022/06/08 04:54:32;;;;;;;8.65;2.55;;;16.10;80.30;;;;;;5060129;28;20049;-94
2022/06/08 04:57:00;;;;;;;7.95;2.30;;;16.10;80.30;;;;;;5055284;28;20122;-94
2022/06/08 04:59:27;;;;;;;11.48;2.60;;;16.10;80.40;;;;;;5056852;28;20083;-95
2022/06/08 05:01:54;;;;;;;6.80;2.15;;;16.00;80.40;;;;;;5055302;28;20095;-92
2022/06/08 05:04:21;;;;;;;9.50;2.50;;;16.00;80.40;;;;;;5057186;28;20132;-94
2022/06/08 05:06:48;;;;;;;11.82;2.80;;;16.00;80.40;;;;;;5056840;28;20044;-94
2022/06/08 05:09:15;;;;;;;11.40;2.70;;;16.00;80.40;;;;;;5053530;28;20081;-95
2022/06/08 05:11:42;;;;;;;11.73;2.83;;;16.00;80.40;;;;;;5018450;28;20100;-92
2022/06/08 05:14:08;;;;;;;7.97;2.38;;;16.00;80.40;;;;;;5053966;28;20052;-94
2022/06/08 05:16:35;;;;;;;10.52;2.33;;;16.00;80.50;;;;;;5055017;28;20099;-94
2022/06/08 05:19:02;;;;;;;12.80;3.00;;;16.00;80.50;;;;;;5055686;28;20045;-95
2022/06/08 05:21:29;;;;;;;12.45;2.45;;;16.00;80.50;;;;;;5054779;28;20048;-94
2022/06/08 05:24:03;;;;;;;14.57;2.83;;;16.00;80.50;;;;;;5054944;28;20051;-95
2022/06/08 05:26:30;;;;;;;13.85;3.05;;;16.00;80.60;;;;;;5054352;28;20045;-94
2022/06/08 05:28:57;;;;;;;8.00;2.15;;;16.00;80.60;;;;;;5053652;28;20512;-94
2022/06/08 05:31:27;;;;;;;9.63;2.22;;;16.00;80.60;;;;;;5054219;28;20067;-93
2022/06/08 05:33:57;;;;;;;7.90;2.10;;;16.00;80.60;;;;;;5053861;28;20452;-94
2022/06/08 05:36:24;;;;;;;8.90;2.58;;;15.90;80.60;;;;;;5053376;28;20053;-93
2022/06/08 05:38:51;;;;;;;8.50;2.40;;;15.90;80.70;;;;;;5053197;28;20410;-93
2022/06/08 05:41:18;;;;;;;13.35;2.95;;;15.90;80.70;;;;;;5052383;28;20053;-91
2022/06/08 05:43:44;;;;;;;11.38;2.95;;;15.90;80.70;;;;;;5051390;28;20382;-92
2022/06/08 05:46:12;;;;;;;11.75;2.65;;;15.90;80.70;;;;;;5052220;28;20543;-95
2022/06/08 05:48:39;;;;;;;12.05;2.50;;;16.00;80.80;;;;;;5052342;28;20479;-92
2022/06/08 05:51:06;;;;;;;11.73;2.47;;;15.90;80.80;;;;;;5052434;28;20049;-93
2022/06/08 05:53:33;;;;;;;10.20;2.72;;;15.90;80.80;;;;;;5050944;28;20111;-93
2022/06/08 05:56:01;;;;;;;12.77;2.92;;;15.90;80.90;;;;;;5053045;28;20057;-93
2022/06/08 05:58:28;;;;;;;11.60;2.40;;;15.90;80.90;;;;;;5053168;28;20045;-95
2022/06/08 06:00:55;;;;;;;10.10;2.40;;;15.90;80.90;;;;;;5052495;28;20504;-93
2022/06/08 06:03:22;;;;;;;6.82;2.13;;;15.90;81.00;;;;;;5052365;28;20566;-93
2022/06/08 06:05:49;;;;;;;13.13;2.75;;;15.90;81.00;;;;;;5052830;28;20501;-93
2022/06/08 06:08:17;;;;;;;9.05;2.25;;;15.90;81.00;;;;;;5048572;28;20040;-93
2022/06/08 06:10:46;;;;;;;9.75;2.65;;;15.80;81.10;;;;;;5052931;28;20053;-95
2022/06/08 06:13:13;;;;;;;6.88;2.30;;;15.80;81.10;;;;;;5052076;28;20501;-94
2022/06/08 06:15:40;;;;;;;8.27;2.47;;;15.80;81.10;;;;;;5053001;28;20049;-93
2022/06/08 06:18:16;;;;;;;12.90;2.42;;;15.80;81.20;;;;;;5035829;28;20056;-93
2022/06/08 06:20:44;;;;;;;9.82;2.30;;;15.70;81.30;;;;;;5053106;28;20060;-94
2022/06/08 06:23:11;;;;;;;11.68;2.65;;;15.70;81.20;;;;;;5052550;28;20053;-92
2022/06/08 06:25:40;;;;;;;10.40;2.42;;;15.70;81.30;;;;;;5051932;28;20569;-94
2022/06/08 06:28:07;;;;;;;12.07;2.53;;;15.70;81.30;;;;;;5052700;28;20151;-93
2022/06/08 07:58:05;;;;;;;2.25;1.00;;;15.40;82.70;;;;;;4981040;28;20054;-89
2022/06/08 08:00:32;;;;;;;6.65;1.20;;;15.50;82.70;;;;;;4992049;28;20061;-90
2022/06/08 08:03:00;;;;;;;4.18;1.20;;;15.50;82.70;;;;;;4971943;28;20050;-91
2022/06/08 08:05:27;;;;;;;3.17;1.13;;;15.50;82.80;;;;;;4995904;28;20073;-90
2022/06/08 08:07:54;;;;;;;3.33;1.00;;;15.50;82.80;;;;;;4978106;28;20046;-92
2022/06/08 08:10:25;;;;;;;3.25;0.90;;;15.50;82.90;;;;;;4996666;28;20078;-92
2022/06/08 08:12:55;;;;;;;5.18;1.20;;;15.50;82.90;;;;;;4960459;28;20505;-91
2022/06/08 08:15:24;;;;;;;5.13;1.00;;;15.50;82.90;;;;;;4959021;28;20078;-92
2022/06/08 08:17:52;;;;;;;4.05;0.85;;;15.50;83.00;;;;;;4976330;28;20057;-92
2022/06/08 08:20:20;;;;;;;3.13;0.93;;;15.50;83.00;;;;;;4963336;28;20051;-92
2022/06/08 08:22:47;;;;;;;2.03;0.88;;;15.50;83.00;;;;;;4988585;28;20066;-92
2022/06/08 08:25:15;;;;;;;3.75;0.80;;;15.50;83.00;;;;;;4990675;28;20091;-92
2022/06/08 08:27:44;;;;;;;3.90;1.00;;;15.50;83.10;;;;;;4995478;28;20050;-94
2022/06/08 08:30:17;;;;;;;4.03;0.93;;;15.50;83.10;;;;;;4996198;28;20113;-94
2022/06/08 08:32:44;;;;;;;2.60;0.80;;;15.50;83.10;;;;;;4979098;28;20050;-93
2022/06/08 08:35:12;;;;;;;2.40;0.70;;;15.50;83.10;;;;;;4995831;28;20058;-93
2022/06/08 08:37:40;;;;;;;1.73;0.55;;;15.50;83.20;;;;;;4984961;28;20058;-92
2022/06/08 08:40:22;;;;;;;2.30;0.70;;;15.50;83.20;;;;;;4981596;28;20054;-95
2022/06/08 08:42:49;;;;;;;2.75;0.70;;;15.50;83.20;;;;;;4991961;28;20053;-93
2022/06/08 08:45:16;;;;;;;1.08;0.60;;;15.50;83.20;;;;;;4975255;28;20046;-93
2022/06/08 08:47:54;;;;;;;2.50;0.60;;;15.50;83.30;;;;;;4960567;28;20114;-94
2022/06/08 08:50:23;;;;;;;2.88;0.60;;;15.60;83.30;;;;;;4974745;28;20050;-93
2022/06/08 08:53:12;;;;;;;3.55;0.52;;;15.50;83.30;;;;;;4990640;28;20058;-92
2022/06/08 08:55:46;;;;;;;2.22;0.50;;;15.60;83.40;;;;;;4983527;28;20062;-93
2022/06/08 08:58:17;;;;;;;2.17;0.70;;;15.50;83.40;;;;;;4965186;28;20055;-92
2022/06/08 09:00:52;;;;;;;3.83;0.80;;;15.60;83.50;;;;;;4994115;28;20058;-93
2022/06/08 09:03:49;;;;;;;1.65;0.65;;;15.50;83.50;;;;;;4975662;28;20187;-92
2022/06/08 09:06:20;;;;;;;2.97;0.70;;;15.60;83.60;;;;;;4975257;28;20102;-91
2022/06/08 09:08:50;;;;;;;2.22;0.68;;;15.50;83.60;;;;;;4974230;28;20141;-92
2022/06/08 09:11:26;;;;;;;1.15;0.43;;;15.60;83.60;;;;;;4990979;28;20065;-92
2022/06/08 09:13:56;;;;;;;0.93;0.45;;;15.60;83.70;;;;;;5009496;28;20054;-92
2022/06/08 09:16:35;;;;;;;1.45;0.52;;;15.60;83.70;;;;;;4977236;28;20112;-92
2022/06/08 09:19:21;;;;;;;1.05;0.50;;;15.60;83.80;;;;;;4993462;28;20046;-92
2022/06/08 09:22:10;;;;;;;1.80;0.70;;;15.70;83.80;;;;;;4994178;28;20049;-91
2022/06/08 09:24:49;;;;;;;1.10;0.50;;;15.70;83.80;;;;;;4983923;28;20046;-91
2022/06/08 09:27:22;;;;;;;14.25;0.90;;;15.70;83.90;;;;;;5010269;28;20112;-90
2022/06/08 09:29:54;;;;;;;2.40;0.87;;;15.70;83.90;;;;;;4965494;28;20415;-90
2022/06/08 09:32:44;;;;;;;3.05;1.10;;;15.70;84.00;;;;;;4988351;28;20493;-90
2022/06/08 09:35:30;;;;;;;4.35;1.40;;;15.70;84.00;;;;;;4976996;28;20140;-92
2022/06/08 09:38:20;;;;;;;5.47;1.80;;;15.80;84.10;;;;;;4989585;28;20573;-91
2022/06/08 09:40:49;;;;;;;7.22;1.80;;;15.80;84.20;;;;;;4981862;28;20058;-92
2022/06/08 09:43:42;;;;;;;6.82;2.47;;;15.80;84.20;;;;;;4982016;28;20046;-93
2022/06/08 09:52:44;;;;;;;11.52;3.28;;;15.90;84.30;;;;;;4952542;29;20546;-94
2022/06/08 09:56:09;;;;;;;10.95;2.88;;;15.90;84.40;;;;;;4952617;29;20098;-90
2022/06/08 09:58:54;;;;;;;;;;;16.00;84.40;;;;;;4906954;29;20529;-91
2022/06/08 10:01:39;;;;;;;17.15;4.30;;;16.00;84.30;;;;;;4896146;29;19927;-92
2022/06/08 10:04:26;;;;;;;14.60;3.90;;;16.00;84.40;;;;;;4895998;29;20049;-90
2022/06/08 10:07:19;;;;;;;10.77;3.00;;;16.00;84.40;;;;;;4896262;29;20633;-90
2022/06/08 10:09:58;;;;;;;11.75;3.10;;;16.10;84.40;;;;;;4880857;29;20508;-90
2022/06/08 10:12:58;;;;;;;15.25;3.88;;;16.10;84.40;;;;;;4898534;29;20052;-91
2022/06/08 10:15:59;;;;;;;10.70;3.05;;;16.10;84.40;;;;;;4892581;29;20052;-90
2022/06/08 10:18:31;;;;;;;15.48;3.72;;;16.20;84.40;;;;;;4888800;29;20061;-91
2022/06/08 10:21:09;;;;;;;21.02;4.35;;;16.20;84.40;;;;;;4895741;29;20559;-91
2022/06/08 10:23:54;;;;;;;18.02;4.03;;;16.20;84.40;;;;;;4879931;29;20146;-91
2022/06/08 10:26:42;;;;;;;21.67;3.92;;;16.30;84.40;;;;;;4879202;29;20418;-90
2022/06/08 10:29:16;;;;;;;22.88;4.32;;;16.30;84.40;;;;;;4872259;29;20053;-91
2022/06/08 10:31:56;;;;;;;15.55;4.05;;;16.30;84.30;;;;;;4889157;29;20416;-92
2022/06/08 10:34:33;;;;;;;17.83;3.80;;;16.30;84.30;;;;;;4933485;28;20133;-91
2022/06/08 10:37:07;;;;;;;16.88;3.95;;;16.30;84.20;;;;;;4993256;28;20465;-92
2022/06/08 10:39:35;;;;;;;15.48;3.63;;;16.30;84.10;;;;;;5011122;28;20054;-91
2022/06/08 10:42:39;;;;;;;18.35;3.90;;;16.40;84.10;;;;;;4978140;28;20054;-91
2022/06/08 10:45:26;;;;;;;15.90;3.95;;;16.40;84.10;;;;;;4994209;28;20047;-91
2022/06/08 10:48:13;;;;;;;18.30;3.58;;;16.40;84.10;;;;;;4989802;28;20109;-91
2022/06/08 10:50:48;;;;;;;17.55;3.72;;;16.40;84.10;;;;;;5012037;28;20461;-90
2022/06/08 10:56:36;;;;;;;18.52;3.80;;;16.50;84.10;;;;;;4992709;28;20050;-91
2022/06/08 10:59:06;;;;;;;16.15;3.38;;;16.60;84.00;;;;;;4990510;28;20105;-92
2022/06/08 11:01:49;;;;;;;13.43;3.33;;;16.60;84.00;;;;;;4996975;28;20112;-92
2022/06/08 11:04:35;;;;;;;14.82;3.60;;;16.60;83.90;;;;;;4997267;28;20512;-93
2022/06/08 11:07:05;;;;;;;13.50;3.30;;;16.70;83.80;;;;;;4981968;28;20534;-92
2022/06/08 11:09:32;;;;;;;16.38;3.33;;;16.70;83.70;;;;;;4995931;28;20108;-91
2022/06/08 11:12:11;;;;;;;15.90;3.38;;;16.80;83.60;;;;;;4996430;28;20525;-92
2022/06/08 11:14:47;;;;;;;9.45;2.90;;;16.80;83.40;;;;;;4980448;28;20499;-90
2022/06/08 11:17:26;;;;;;;14.38;3.45;;;16.80;83.30;;;;;;4992408;28;20050;-91
2022/06/08 11:20:13;;;;;;;14.77;3.03;;;16.90;83.20;;;;;;4975576;28;20050;-92
2022/06/08 11:23:03;;;;;;;13.52;3.20;;;16.90;83.10;;;;;;4987932;28;20062;-92
2022/06/08 11:25:49;;;;;;;13.43;3.10;;;16.90;83.10;;;;;;4975979;28;20055;-92
2022/06/08 11:28:31;;;;;;;16.08;3.10;;;16.90;83.00;;;;;;4984927;28;20046;-93
2022/06/08 11:31:04;;;;;;;12.45;3.03;;;17.00;83.00;;;;;;4996557;28;20458;-92
2022/06/08 11:34:03;;;;;;;13.23;3.47;;;17.10;82.80;;;;;;4996399;28;20046;-92
2022/06/08 11:36:47;;;;;;;13.55;3.30;;;17.20;82.60;;;;;;4996351;28;20061;-93
2022/06/08 11:39:30;;;;;;;19.63;3.25;;;17.20;82.30;;;;;;4995807;28;20054;-90
2022/06/08 11:42:01;;;;;;;10.75;2.67;;;17.20;82.10;;;;;;4975372;28;20494;-93
2022/06/08 11:44:35;;;;;;;13.10;3.10;;;17.30;81.90;;;;;;4993096;28;20105;-93
2022/06/08 11:47:15;;;;;;;18.33;2.63;;;17.40;81.80;;;;;;4996598;28;20413;-92
2022/06/08 11:49:45;;;;;;;16.45;3.13;;;17.40;81.70;;;;;;4996459;28;20050;-94
2022/06/08 11:52:27;;;;;;;12.85;2.35;;;17.40;81.60;;;;;;4996276;28;20053;-94
2022/06/08 11:55:08;;;;;;;12.65;2.95;;;17.50;81.40;;;;;;4997653;28;20402;-92
2022/06/08 11:57:42;;;;;;;8.70;2.03;;;17.50;81.20;;;;;;4994407;28;20054;-93
2022/06/08 12:00:26;;;;;;;10.90;2.53;;;17.60;80.90;;;;;;4974160;28;20418;-93
2022/06/08 12:02:57;;;;;;;14.23;2.45;;;17.70;80.70;;;;;;4977093;28;20058;-93
2022/06/08 12:05:27;;;;;;;13.95;2.45;;;17.70;80.60;;;;;;4980428;28;20051;-92
2022/06/08 12:08:33;;;;;;;12.68;2.42;;;17.80;80.40;;;;;;4997191;28;20058;-92
2022/06/08 12:11:19;;;;;;;8.20;2.22;;;17.90;80.10;;;;;;4996903;28;20058;-94
2022/06/08 12:13:59;;;;;;;10.85;2.33;;;17.90;79.90;;;;;;4979561;28;20082;-89
2022/06/08 12:16:31;;;;;;;14.27;2.33;;;17.90;79.60;;;;;;4996139;28;20050;-93
2022/06/08 12:19:13;;;;;;;10.55;2.22;;;18.00;79.30;;;;;;4996392;28;20050;-94
2022/06/08 12:21:46;;;;;;;9.98;2.33;;;18.00;79.00;;;;;;4979052;28;20052;-94
2022/06/08 12:24:21;;;;;;;7.88;1.83;;;18.00;78.80;;;;;;4998592;28;20060;-94
2022/06/08 12:26:51;;;;;;;10.80;2.15;;;18.10;78.50;;;;;;4978616;28;20050;-94
2022/06/08 12:29:26;;;;;;;11.10;2.00;;;18.10;78.30;;;;;;4994167;28;20050;-94
2022/06/08 12:32:05;;;;;;;9.55;1.77;;;18.10;78.10;;;;;;4998764;28;20061;-94
2022/06/08 12:34:46;;;;;;;10.85;2.22;;;18.10;77.80;;;;;;4996994;28;20050;-94
2022/06/08 12:37:28;;;;;;;10.70;1.80;;;18.10;77.40;;;;;;4979587;28;20571;-93
2022/06/08 12:40:16;;;;;;;9.52;2.03;;;18.10;77.20;;;;;;4992302;28;20129;-93
2022/06/08 12:43:07;;;;;;;10.80;2.20;;;18.10;77.10;;;;;;4980099;28;20058;-93
2022/06/08 12:45:38;;;;;;;12.98;1.98;;;18.10;77.10;;;;;;4997996;28;20054;-93
2022/06/08 12:48:24;;;;;;;9.48;1.83;;;18.10;77.10;;;;;;5011976;28;20042;-94
2022/06/08 12:50:56;;;;;;;7.22;1.75;;;18.10;76.90;;;;;;4961890;28;20074;-94
2022/06/08 12:53:23;;;;;;;8.45;2.00;;;18.10;76.80;;;;;;4977953;28;20062;-93
2022/06/08 12:55:52;;;;;;;6.18;1.63;;;18.10;76.70;;;;;;4978897;28;20077;-93
2022/06/08 12:58:23;;;;;;;12.45;1.90;;;18.10;76.60;;;;;;4979804;28;20054;-94
2022/06/08 13:00:53;;;;;;;13.93;2.20;;;18.20;76.50;;;;;;4980051;28;20062;-93
2022/06/08 13:03:27;;;;;;;10.93;2.20;;;18.20;76.50;;;;;;4979685;28;20058;-93
2022/06/08 13:05:56;;;;;;;8.95;1.75;;;18.20;76.40;;;;;;4971673;28;20141;-94
2022/06/08 13:08:27;;;;;;;10.63;2.05;;;18.20;76.30;;;;;;4990204;28;20046;-94
2022/06/08 13:11:00;;;;;;;6.57;2.00;;;18.20;76.30;;;;;;4967644;28;20078;-94
2022/06/08 13:13:31;;;;;;;8.73;1.92;;;18.20;76.20;;;;;;4984545;28;20058;-93
2022/06/08 13:16:00;;;;;;;9.30;1.98;;;18.20;76.20;;;;;;4977045;28;20465;-90
2022/06/08 13:18:28;;;;;;;10.82;2.33;;;18.30;76.20;;;;;;4959083;28;20065;-93
2022/06/08 13:20:57;;;;;;;10.73;1.90;;;18.40;76.10;;;;;;5009949;28;20058;-94
2022/06/08 13:23:25;;;;;;;7.68;1.70;;;18.40;75.90;;;;;;4977751;28;20054;-92
2022/06/08 13:25:54;;;;;;;11.65;2.17;;;18.40;75.80;;;;;;4997533;28;20058;-93
2022/06/08 13:28:28;;;;;;;11.63;2.10;;;18.50;75.70;;;;;;4978963;28;20069;-94
2022/06/08 13:30:57;;;;;;;8.27;2.15;;;18.50;75.70;;;;;;4961995;28;20521;-95
2022/06/08 13:36:43;;;;;;;10.85;1.88;;;18.70;75.50;;;;;;4975483;28;20078;-92
2022/06/08 13:39:24;;;;;;;10.40;2.13;;;18.80;75.30;;;;;;4974720;28;20054;-93
2022/06/08 13:41:54;;;;;;;9.85;1.42;;;18.80;75.10;;;;;;4992862;28;20054;-92
2022/06/08 13:44:25;;;;;;;8.07;2.03;;;18.90;74.90;;;;;;4976791;28;20054;-93
2022/06/08 13:47:11;;;;;;;5.55;1.52;;;19.00;74.70;;;;;;4993089;28;20050;-92
2022/06/08 13:49:44;;;;;;;9.13;1.65;;;19.10;74.40;;;;;;4989417;28;20071;-93
2022/06/08 13:52:13;;;;;;;8.55;1.80;;;19.10;74.10;;;;;;4970932;28;20051;-93
2022/06/08 13:54:48;;;;;;;8.48;1.38;;;19.20;73.90;;;;;;4959603;28;20422;-92
2022/06/08 13:57:15;;;;;;;14.50;1.70;;;19.30;73.60;;;;;;4994204;28;20058;-92
2022/06/08 13:59:44;;;;;;;7.28;1.60;;;19.40;73.40;;;;;;4973917;28;20042;-92
2022/06/08 14:02:29;;;;;;;5.82;1.25;;;19.40;72.90;;;;;;4988020;28;20125;-92
2022/06/08 14:04:57;;;;;;;9.65;1.80;;;19.50;72.50;;;;;;5008600;28;20058;-92
2022/06/08 14:13:07;;;;;;;6.55;1.35;;;19.60;71.80;;;;;;4979235;28;20058;-91
2022/06/08 14:15:34;;;;;;;8.90;1.92;;;19.70;71.60;;;;;;4993133;28;20050;-91
2022/06/08 14:18:16;;;;;;;7.55;2.00;;;19.70;71.50;;;;;;4988497;28;20055;-92
2022/06/08 14:20:45;;;;;;;7.75;1.63;;;19.80;71.50;;;;;;4992913;28;20046;-91
2022/06/08 14:23:18;;;;;;;10.57;1.98;;;19.80;71.40;;;;;;4991503;28;20066;-91
2022/06/08 14:25:47;;;;;;;8.23;1.65;;;19.90;71.30;;;;;;4985833;28;20047;-92
2022/06/08 14:28:35;;;;;;;9.95;1.58;;;19.90;71.30;;;;;;4968330;28;20082;-90
2022/06/08 14:31:02;;;;;;;10.65;1.98;;;20.00;71.10;;;;;;4993308;28;20104;-91
2022/06/08 14:33:32;;;;;;;7.65;1.83;;;20.10;70.80;;;;;;4992334;28;20057;-92
2022/06/08 14:36:02;;;;;;;7.22;1.80;;;20.10;70.30;;;;;;4986613;28;20070;-92
2022/06/08 14:38:50;;;;;;;9.45;1.90;;;20.20;70.00;;;;;;4992680;28;20158;-92
2022/06/08 14:41:37;;;;;;;7.93;1.70;;;20.30;69.90;;;;;;5008300;28;20097;-91
2022/06/08 14:44:12;;;;;;;10.85;1.63;;;20.30;69.70;;;;;;4973764;28;20050;-92
2022/06/08 14:46:58;;;;;;;6.47;1.42;;;20.30;69.50;;;;;;4993072;28;20540;-92
2022/06/08 14:49:32;;;;;;;8.43;1.77;;;20.30;69.30;;;;;;4992815;28;20046;-91
2022/06/08 14:52:00;;;;;;;;;;;20.40;69.20;;;;;;4993804;28;20054;-94
2022/06/08 14:54:30;;;;;;;7.70;1.77;;;20.40;69.10;;;;;;4975776;28;19922;-93
2022/06/08 14:57:23;;;;;;;8.68;1.70;;;20.50;69.00;;;;;;4991955;28;20525;-92
2022/06/08 14:59:51;;;;;;;8.13;1.67;;;20.50;68.90;;;;;;4962108;28;20051;-92
2022/06/08 15:02:28;;;;;;;8.85;2.22;;;20.60;68.70;;;;;;4957087;28;20134;-94
2022/06/08 15:04:56;;;;;;;9.88;1.90;;;20.60;68.60;;;;;;4980690;28;20137;-93
2022/06/08 15:07:24;;;;;;;10.40;1.88;;;20.70;68.50;;;;;;4973922;28;20124;-92
2022/06/08 15:09:53;;;;;;;7.40;1.63;;;20.80;68.30;;;;;;4976130;28;20138;-93
2022/06/08 15:12:24;;;;;;;8.95;2.13;;;20.80;68.10;;;;;;4972995;28;20065;-92